createdAt,value
2017-05-27T00:00:42.145Z,0
2017-05-27T00:01:54.578Z,0
2017-05-27T00:03:07.502Z,0
2017-05-27T00:04:19.444Z,0
2017-05-27T00:05:31.877Z,0
2017-05-27T00:06:44.307Z,0
2017-05-27T00:07:56.940Z,0
2017-05-27T00:09:08.882Z,0
2017-05-27T00:10:21.315Z,0
2017-05-27T00:11:33.255Z,0
2017-05-27T00:12:46.176Z,0
2017-05-27T00:13:58.824Z,0
2017-05-27T00:15:10.765Z,0
2017-05-27T00:16:23.696Z,0
2017-05-27T00:17:36.617Z,0
2017-05-27T00:18:49.547Z,0
2017-05-27T00:20:02.467Z,0
2017-05-27T00:21:15.388Z,0
2017-05-27T00:22:28.322Z,0
2017-05-27T00:23:41.248Z,0
2017-05-27T00:24:53.192Z,0
2017-05-27T00:26:06.125Z,0
2017-05-27T00:27:18.558Z,0
2017-05-27T00:28:31.503Z,0
2017-05-27T00:29:43.691Z,0
2017-05-27T00:30:56.615Z,0
2017-05-27T00:32:09.118Z,0
2017-05-27T00:33:22.132Z,0
2017-05-27T00:34:34.639Z,0
2017-05-27T00:35:47.643Z,0
2017-05-27T00:37:00.644Z,0
2017-05-27T00:38:13.156Z,0
2017-05-27T00:39:25.685Z,0
2017-05-27T00:40:38.237Z,0
2017-05-27T00:41:50.750Z,0
2017-05-27T00:43:03.763Z,0
2017-05-27T00:44:16.272Z,0
2017-05-27T00:45:28.287Z,0
2017-05-27T00:46:40.993Z,0
2017-05-27T00:47:53.996Z,0
2017-05-27T00:49:07.014Z,0
2017-05-27T00:50:19.025Z,0
2017-05-27T00:51:31.235Z,0
2017-05-27T00:52:44.240Z,0
2017-05-27T00:53:56.750Z,0
2017-05-27T00:55:09.259Z,0
2017-05-27T00:56:21.770Z,0
2017-05-27T00:57:34.277Z,0
2017-05-27T00:58:46.784Z,0
2017-05-27T00:59:59.792Z,0
2017-05-27T01:01:12.294Z,0
2017-05-27T01:02:24.804Z,0
2017-05-27T01:03:37.812Z,0
2017-05-27T01:04:50.318Z,0
2017-05-27T01:06:02.823Z,0
2017-05-27T01:07:15.328Z,0
2017-05-27T01:08:28.591Z,0
2017-05-27T01:09:41.154Z,0
2017-05-27T01:10:54.215Z,0
2017-05-27T01:12:06.775Z,0
2017-05-27T01:13:19.039Z,0
2017-05-27T01:14:32.111Z,0
2017-05-27T01:15:44.669Z,0
2017-05-27T01:16:57.794Z,0
2017-05-27T01:18:10.864Z,0
2017-05-27T01:19:23.627Z,0
2017-05-27T01:20:36.694Z,0
2017-05-27T01:21:49.759Z,0
2017-05-27T01:23:02.314Z,0
2017-05-27T01:24:14.356Z,0
2017-05-27T01:25:26.900Z,0
2017-05-27T01:26:39.446Z,0
2017-05-27T01:27:51.491Z,0
2017-05-27T01:29:04.534Z,0
2017-05-27T01:30:17.284Z,0
2017-05-27T01:31:29.832Z,0
2017-05-27T01:32:42.882Z,0
2017-05-27T01:33:55.931Z,0
2017-05-27T01:35:08.726Z,0
2017-05-27T01:36:21.333Z,0
2017-05-27T01:37:34.379Z,0
2017-05-27T01:38:46.933Z,0
2017-05-27T01:39:59.985Z,0
2017-05-27T01:41:12.734Z,0
2017-05-27T01:42:24.784Z,0
2017-05-27T01:43:37.830Z,0
2017-05-27T01:44:50.262Z,0
2017-05-27T01:46:03.165Z,0
2017-05-27T01:47:15.586Z,0
2017-05-27T01:48:28.503Z,0
2017-05-27T01:49:40.919Z,0
2017-05-27T01:50:53.821Z,0
2017-05-27T01:52:06.235Z,0
2017-05-27T01:53:18.658Z,0
2017-05-27T01:54:31.562Z,0
2017-05-27T01:55:44.464Z,0
2017-05-27T01:56:57.376Z,0
2017-05-27T01:58:09.789Z,0
2017-05-27T01:59:21.714Z,0
2017-05-27T02:00:34.126Z,0
2017-05-27T02:01:46.543Z,0
2017-05-27T02:02:59.453Z,0
2017-05-27T02:04:11.880Z,0
2017-05-27T02:05:24.783Z,0
2017-05-27T02:06:37.697Z,0
2017-05-27T02:07:50.807Z,0
2017-05-27T02:09:03.713Z,0
2017-05-27T02:10:15.638Z,0
2017-05-27T02:11:27.560Z,0
2017-05-27T02:12:40.462Z,0
2017-05-27T02:13:53.564Z,0
2017-05-27T02:15:05.981Z,0
2017-05-27T02:16:18.882Z,0
2017-05-27T02:17:31.792Z,0
2017-05-27T02:18:44.702Z,0
2017-05-27T02:19:57.603Z,0
2017-05-27T02:21:10.018Z,0
2017-05-27T02:22:22.926Z,0
2017-05-27T02:23:35.857Z,0
2017-05-27T02:24:48.973Z,0
2017-05-27T02:26:01.874Z,0
2017-05-27T02:27:14.775Z,0
2017-05-27T02:28:26.698Z,0
2017-05-27T02:29:39.310Z,0
2017-05-27T02:30:52.261Z,0
2017-05-27T02:32:05.223Z,0
2017-05-27T02:33:17.637Z,0
2017-05-27T02:34:30.051Z,0
2017-05-27T02:35:43.165Z,0
2017-05-27T02:36:55.580Z,0
2017-05-27T02:38:08.482Z,0
2017-05-27T02:39:20.892Z,0
2017-05-27T02:40:33.512Z,0
2017-05-27T02:41:46.420Z,0
2017-05-27T02:42:59.329Z,0
2017-05-27T02:44:12.241Z,0
2017-05-27T02:45:24.653Z,0
2017-05-27T02:46:37.268Z,0
2017-05-27T02:47:50.172Z,0
2017-05-27T02:49:02.589Z,0
2017-05-27T02:50:15.490Z,0
2017-05-27T02:51:27.614Z,0
2017-05-27T02:52:39.971Z,0
2017-05-27T02:53:52.270Z,0
2017-05-27T02:55:03.610Z,0
2017-05-27T02:56:15.914Z,0
2017-05-27T02:57:28.699Z,0
2017-05-27T02:58:41.482Z,0
2017-05-27T02:59:54.266Z,0
2017-05-27T03:01:06.567Z,0
2017-05-27T03:02:19.073Z,0
2017-05-27T03:03:31.381Z,0
2017-05-27T03:04:43.686Z,0
2017-05-27T03:05:56.471Z,0
2017-05-27T03:07:09.252Z,0
2017-05-27T03:08:21.555Z,0
2017-05-27T03:09:33.858Z,0
2017-05-27T03:10:46.164Z,0
2017-05-27T03:11:58.947Z,0
2017-05-27T03:13:11.933Z,0
2017-05-27T03:14:24.716Z,0
2017-05-27T03:15:36.537Z,0
2017-05-27T03:16:49.322Z,0
2017-05-27T03:18:02.112Z,0
2017-05-27T03:19:15.104Z,0
2017-05-27T03:20:27.898Z,0
2017-05-27T03:21:40.681Z,0
2017-05-27T03:22:53.039Z,0
2017-05-27T03:24:05.061Z,0
2017-05-27T03:25:17.855Z,0
2017-05-27T03:26:30.639Z,0
2017-05-27T03:27:43.425Z,0
2017-05-27T03:28:55.734Z,0
2017-05-27T03:30:08.237Z,0
2017-05-27T03:31:20.055Z,0
2017-05-27T03:32:31.991Z,0
2017-05-27T03:33:44.918Z,0
2017-05-27T03:34:57.355Z,0
2017-05-27T03:36:09.301Z,0
2017-05-27T03:37:22.226Z,0
2017-05-27T03:38:34.788Z,0
2017-05-27T03:39:47.849Z,0
2017-05-27T03:41:01.120Z,0
2017-05-27T03:42:13.682Z,0
2017-05-27T03:43:25.248Z,0
2017-05-27T03:44:37.814Z,0
2017-05-27T03:45:50.877Z,0
2017-05-27T03:47:03.997Z,0
2017-05-27T03:48:15.561Z,0
2017-05-27T03:49:28.132Z,0
2017-05-27T03:50:40.691Z,0
2017-05-27T03:51:53.950Z,0
2017-05-27T03:53:07.017Z,0
2017-05-27T03:54:20.138Z,0
2017-05-27T03:55:32.698Z,0
2017-05-27T03:56:45.269Z,0
2017-05-27T03:57:57.332Z,0
2017-05-27T03:59:09.899Z,0
2017-05-27T04:00:22.513Z,0
2017-05-27T04:01:35.573Z,0
2017-05-27T04:02:48.642Z,0
2017-05-27T04:04:01.708Z,0
2017-05-27T04:05:14.271Z,0
2017-05-27T04:06:26.336Z,0
2017-05-27T04:07:39.279Z,0
2017-05-27T04:08:52.400Z,0
2017-05-27T04:10:05.324Z,0
2017-05-27T04:11:18.243Z,0
2017-05-27T04:12:30.185Z,0
2017-05-27T04:13:42.818Z,0
2017-05-27T04:14:55.738Z,0
2017-05-27T04:16:08.660Z,0
2017-05-27T04:17:21.585Z,0
2017-05-27T04:18:34.034Z,0
2017-05-27T04:19:46.460Z,0
2017-05-27T04:20:59.379Z,0
2017-05-27T04:22:11.315Z,0
2017-05-27T04:23:23.236Z,0
2017-05-27T04:24:35.164Z,0
2017-05-27T04:25:48.270Z,0
2017-05-27T04:27:00.684Z,0
2017-05-27T04:28:13.589Z,0
2017-05-27T04:29:26.008Z,0
2017-05-27T04:30:38.909Z,0
2017-05-27T04:31:51.818Z,0
2017-05-27T04:33:04.236Z,0
2017-05-27T04:34:17.142Z,0
2017-05-27T04:35:29.551Z,0
2017-05-27T04:36:42.447Z,0
2017-05-27T04:37:55.347Z,0
2017-05-27T04:39:06.785Z,0
2017-05-27T04:40:18.705Z,0
2017-05-27T04:41:31.173Z,0
2017-05-27T04:42:44.082Z,0
2017-05-27T04:43:56.992Z,0
2017-05-27T04:45:09.894Z,0
2017-05-27T04:46:21.817Z,0
2017-05-27T04:47:34.429Z,0
2017-05-27T04:48:47.336Z,0
2017-05-27T04:49:59.754Z,0
2017-05-27T04:51:12.651Z,0
2017-05-27T04:52:25.065Z,0
2017-05-27T04:53:36.989Z,0
2017-05-27T04:54:49.891Z,0
2017-05-27T04:56:02.794Z,0
2017-05-27T04:57:15.697Z,0
2017-05-27T04:58:28.325Z,0
2017-05-27T04:59:40.739Z,0
2017-05-27T05:00:53.641Z,0
2017-05-27T05:02:06.057Z,0
2017-05-27T05:03:18.979Z,0
2017-05-27T05:04:31.395Z,0
2017-05-27T05:05:44.296Z,0
2017-05-27T05:06:57.200Z,0
2017-05-27T05:08:09.510Z,0
2017-05-27T05:09:21.813Z,0
2017-05-27T05:10:34.112Z,0
2017-05-27T05:11:46.894Z,0
2017-05-27T05:12:59.675Z,0
2017-05-27T05:14:11.978Z,0
2017-05-27T05:15:24.476Z,0
2017-05-27T05:16:36.308Z,0
2017-05-27T05:17:49.102Z,0
2017-05-27T05:19:00.924Z,0
2017-05-27T05:20:13.230Z,0
2017-05-27T05:21:26.214Z,0
2017-05-27T05:22:37.550Z,0
2017-05-27T05:23:50.338Z,0
2017-05-27T05:25:03.119Z,0
2017-05-27T05:26:14.462Z,0
2017-05-27T05:27:27.442Z,0
2017-05-27T05:28:38.786Z,0
2017-05-27T05:29:51.570Z,0
2017-05-27T05:31:03.871Z,0
2017-05-27T05:32:16.856Z,0
2017-05-27T05:33:29.162Z,0
2017-05-27T05:34:41.945Z,0
2017-05-27T05:35:53.772Z,0
2017-05-27T05:37:06.071Z,0
2017-05-27T05:38:18.373Z,0
2017-05-27T05:39:29.719Z,0
2017-05-27T05:40:42.503Z,0
2017-05-27T05:41:55.295Z,0
2017-05-27T05:43:07.799Z,0
2017-05-27T05:44:20.586Z,0
2017-05-27T05:45:31.925Z,0
2017-05-27T05:46:44.224Z,0
2017-05-27T05:47:57.004Z,0
2017-05-27T05:49:08.343Z,0
2017-05-27T05:50:20.642Z,0
2017-05-27T05:51:32.941Z,0
2017-05-27T05:52:44.872Z,0
2017-05-27T05:53:57.798Z,0
2017-05-27T05:55:10.237Z,0
2017-05-27T05:56:22.668Z,0
2017-05-27T05:57:35.094Z,0
2017-05-27T05:58:48.020Z,0
2017-05-27T06:00:00.949Z,0
2017-05-27T06:01:13.376Z,0
2017-05-27T06:02:26.340Z,0
2017-05-27T06:03:39.272Z,0
2017-05-27T06:04:52.195Z,0
2017-05-27T06:06:04.626Z,0
2017-05-27T06:07:16.570Z,0
2017-05-27T06:08:28.996Z,0
2017-05-27T06:09:41.922Z,0
2017-05-27T06:10:54.549Z,0
2017-05-27T06:12:06.000Z,0
2017-05-27T06:13:18.434Z,0
2017-05-27T06:14:31.373Z,0
2017-05-27T06:15:43.804Z,0
2017-05-27T06:16:56.722Z,0
2017-05-27T06:18:09.152Z,0
2017-05-27T06:19:22.081Z,0
2017-05-27T06:20:33.533Z,0
2017-05-27T06:21:46.650Z,0
2017-05-27T06:22:59.573Z,0
2017-05-27T06:24:12.004Z,0
2017-05-27T06:25:24.433Z,0
2017-05-27T06:26:37.355Z,0
2017-05-27T06:27:50.478Z,0
2017-05-27T06:29:02.415Z,0
2017-05-27T06:30:14.351Z,0
2017-05-27T06:31:27.281Z,0
2017-05-27T06:32:40.406Z,0
2017-05-27T06:33:52.836Z,0
2017-05-27T06:35:05.757Z,0
2017-05-27T06:36:18.682Z,0
2017-05-27T06:37:30.623Z,0
2017-05-27T06:38:43.746Z,0
2017-05-27T06:39:56.665Z,0
2017-05-27T06:41:09.585Z,0
2017-05-27T06:42:22.030Z,0
2017-05-27T06:43:34.957Z,0
2017-05-27T06:44:47.878Z,0
2017-05-27T06:46:00.309Z,0
2017-05-27T06:47:12.245Z,0
2017-05-27T06:48:24.688Z,0
2017-05-27T06:49:37.152Z,0
2017-05-27T06:50:50.085Z,0
2017-05-27T06:52:02.512Z,0
2017-05-27T06:53:14.949Z,0
2017-05-27T06:54:27.380Z,0
2017-05-27T06:55:40.306Z,0
2017-05-27T06:56:53.230Z,0
2017-05-27T06:58:06.147Z,0
2017-05-27T06:59:18.092Z,0
2017-05-27T07:00:30.232Z,0
2017-05-27T07:01:43.157Z,0
2017-05-27T07:02:55.589Z,0
2017-05-27T07:04:08.019Z,0
2017-05-27T07:05:21.136Z,0
2017-05-27T07:06:33.567Z,0
2017-05-27T07:07:45.505Z,0
2017-05-27T07:08:57.931Z,0
2017-05-27T07:10:10.361Z,0
2017-05-27T07:11:22.802Z,0
2017-05-27T07:12:35.721Z,0
2017-05-27T07:13:48.638Z,0
2017-05-27T07:15:00.570Z,0
2017-05-27T07:16:13.691Z,0
2017-05-27T07:17:26.614Z,0
2017-05-27T07:18:39.043Z,0
2017-05-27T07:19:51.972Z,0
2017-05-27T07:21:03.423Z,0
2017-05-27T07:22:16.542Z,0
2017-05-27T07:23:29.460Z,0
2017-05-27T07:24:42.448Z,0
2017-05-27T07:25:54.885Z,0
2017-05-27T07:27:07.809Z,0
2017-05-27T07:28:19.751Z,0
2017-05-27T07:29:32.674Z,0
2017-05-27T07:30:45.594Z,0
2017-05-27T07:31:58.516Z,0
2017-05-27T07:33:11.634Z,0
2017-05-27T07:34:24.551Z,0
2017-05-27T07:35:36.977Z,0
2017-05-27T07:36:49.900Z,0
2017-05-27T07:38:02.826Z,0
2017-05-27T07:39:15.749Z,0
2017-05-27T07:40:28.675Z,0
2017-05-27T07:41:41.596Z,0
2017-05-27T07:42:54.514Z,0
2017-05-27T07:44:07.633Z,0
2017-05-27T07:45:20.061Z,0
2017-05-27T07:46:32.489Z,0
2017-05-27T07:47:44.920Z,0
2017-05-27T07:48:57.355Z,0
2017-05-27T07:50:10.276Z,0
2017-05-27T07:51:23.198Z,0
2017-05-27T07:52:35.634Z,0
2017-05-27T07:53:48.555Z,0
2017-05-27T07:55:01.675Z,0
2017-05-27T07:56:13.611Z,0
2017-05-27T07:57:26.045Z,0
2017-05-27T07:58:38.973Z,0
2017-05-27T07:59:51.606Z,0
2017-05-27T08:01:04.034Z,0
2017-05-27T08:02:16.463Z,0
2017-05-27T08:03:28.909Z,0
2017-05-27T08:04:41.831Z,0
2017-05-27T08:05:54.460Z,0
2017-05-27T08:07:06.397Z,0
2017-05-27T08:08:18.815Z,0
2017-05-27T08:09:31.229Z,0
2017-05-27T08:10:43.150Z,0
2017-05-27T08:11:56.045Z,0
2017-05-27T08:13:08.463Z,0
2017-05-27T08:14:21.366Z,0
2017-05-27T08:15:34.265Z,0
2017-05-27T08:16:47.370Z,0
2017-05-27T08:17:59.779Z,0
2017-05-27T08:19:12.681Z,0
2017-05-27T08:20:25.590Z,0
2017-05-27T08:21:38.487Z,0
2017-05-27T08:22:51.390Z,0
2017-05-27T08:24:03.806Z,0
2017-05-27T08:25:16.707Z,0
2017-05-27T08:26:29.606Z,0
2017-05-27T08:27:42.706Z,0
2017-05-27T08:28:55.131Z,0
2017-05-27T08:30:07.555Z,0
2017-05-27T08:31:19.476Z,0
2017-05-27T08:32:31.401Z,0
2017-05-27T08:33:44.009Z,0
2017-05-27T08:34:56.423Z,0
2017-05-27T08:36:09.323Z,0
2017-05-27T08:37:22.223Z,0
2017-05-27T08:38:35.381Z,0
2017-05-27T08:39:47.792Z,0
2017-05-27T08:41:00.689Z,0
2017-05-27T08:42:12.606Z,0
2017-05-27T08:43:24.529Z,0
2017-05-27T08:44:37.656Z,0
2017-05-27T08:45:49.582Z,0
2017-05-27T08:47:02.479Z,0
2017-05-27T08:48:15.381Z,0
2017-05-27T08:49:27.991Z,0
2017-05-27T08:50:40.405Z,0
2017-05-27T08:51:53.307Z,0
2017-05-27T08:53:05.612Z,0
2017-05-27T08:54:18.398Z,0
2017-05-27T08:55:30.805Z,0
2017-05-27T08:56:43.167Z,0
2017-05-27T08:57:55.472Z,0
2017-05-27T08:59:08.257Z,0
2017-05-27T09:00:21.241Z,0
2017-05-27T09:01:33.546Z,0
2017-05-27T09:02:45.847Z,0
2017-05-27T09:03:58.628Z,0
2017-05-27T09:05:11.409Z,0
2017-05-27T09:06:24.396Z,0
2017-05-27T09:07:37.180Z,0
2017-05-27T09:08:49.483Z,0
2017-05-27T09:10:02.263Z,0
2017-05-27T09:11:14.184Z,0
2017-05-27T09:12:26.965Z,0
2017-05-27T09:13:39.273Z,0
2017-05-27T09:14:52.058Z,0
2017-05-27T09:16:04.842Z,0
2017-05-27T09:17:17.343Z,0
2017-05-27T09:18:29.645Z,0
2017-05-27T09:19:41.945Z,0
2017-05-27T09:20:53.284Z,0
2017-05-27T09:22:05.586Z,0
2017-05-27T09:23:18.371Z,0
2017-05-27T09:24:30.694Z,0
2017-05-27T09:25:43.475Z,0
2017-05-27T09:26:55.784Z,0
2017-05-27T09:28:07.810Z,0
2017-05-27T09:29:19.633Z,0
2017-05-27T09:30:32.417Z,0
2017-05-27T09:31:44.719Z,0
2017-05-27T09:32:57.499Z,0
2017-05-27T09:34:09.813Z,0
2017-05-27T09:35:22.593Z,0
2017-05-27T09:36:34.893Z,0
2017-05-27T09:37:47.190Z,0
2017-05-27T09:39:00.176Z,0
2017-05-27T09:40:11.995Z,0
2017-05-27T09:41:24.776Z,0
2017-05-27T09:42:37.578Z,0
2017-05-27T09:43:50.363Z,0
2017-05-27T09:45:03.345Z,0
2017-05-27T09:46:14.681Z,0
2017-05-27T09:47:27.462Z,0
2017-05-27T09:48:40.248Z,0
2017-05-27T09:49:52.750Z,0
2017-05-27T09:51:05.531Z,0
2017-05-27T09:52:17.351Z,0
2017-05-27T09:53:30.134Z,0
2017-05-27T09:54:40.996Z,0
2017-05-27T09:55:51.379Z,0
2017-05-27T09:57:02.743Z,0
2017-05-27T09:58:14.082Z,0
2017-05-27T09:59:24.456Z,0
2017-05-27T10:00:34.829Z,0
2017-05-27T10:01:45.889Z,0
2017-05-27T10:02:56.262Z,0
2017-05-27T10:04:06.631Z,0
2017-05-27T10:05:17.486Z,0
2017-05-27T10:06:27.865Z,0
2017-05-27T10:07:38.247Z,0
2017-05-27T10:08:49.120Z,0
2017-05-27T10:10:00.451Z,0
2017-05-27T10:11:13.278Z,0
2017-05-27T10:12:25.108Z,0
2017-05-27T10:13:37.413Z,0
2017-05-27T10:14:50.195Z,0
2017-05-27T10:16:02.980Z,0
2017-05-27T10:17:15.759Z,0
2017-05-27T10:18:27.777Z,0
2017-05-27T10:19:40.561Z,0
2017-05-27T10:20:53.344Z,0
2017-05-27T10:22:06.127Z,0
2017-05-27T10:23:19.037Z,0
2017-05-27T10:24:31.465Z,5
2017-05-27T10:25:44.387Z,5
2017-05-27T10:26:56.819Z,5
2017-05-27T10:28:09.248Z,5
2017-05-27T10:29:21.678Z,5
2017-05-27T10:30:33.676Z,5
2017-05-27T10:31:46.104Z,5
2017-05-27T10:32:58.039Z,5
2017-05-27T10:34:10.477Z,5
2017-05-27T10:35:23.103Z,5
2017-05-27T10:36:36.021Z,5
2017-05-27T10:37:48.937Z,5
2017-05-27T10:39:01.362Z,5
2017-05-27T10:40:13.789Z,5
2017-05-27T10:41:26.705Z,5
2017-05-27T10:42:39.132Z,5
2017-05-27T10:43:51.560Z,5
2017-05-27T10:45:04.478Z,5
2017-05-27T10:46:17.396Z,5
2017-05-27T10:47:29.334Z,5
2017-05-27T10:48:42.254Z,5
2017-05-27T10:49:54.678Z,5
2017-05-27T10:51:07.798Z,5
2017-05-27T10:52:20.223Z,0
2017-05-27T10:53:32.652Z,5
2017-05-27T10:54:45.568Z,0
2017-05-27T10:55:57.995Z,0
2017-05-27T10:57:09.931Z,0
2017-05-27T10:58:21.373Z,5
2017-05-27T10:59:33.798Z,5
2017-05-27T11:00:46.227Z,5
2017-05-27T11:01:59.204Z,5
2017-05-27T11:03:12.321Z,0
2017-05-27T11:04:24.749Z,0
2017-05-27T11:05:37.664Z,0
2017-05-27T11:06:50.587Z,0
2017-05-27T11:08:02.992Z,0
2017-05-27T11:09:15.406Z,0
2017-05-27T11:10:28.309Z,0
2017-05-27T11:11:41.211Z,0
2017-05-27T11:12:54.108Z,0
2017-05-27T11:14:07.007Z,0
2017-05-27T11:15:19.907Z,0
2017-05-27T11:16:32.810Z,0
2017-05-27T11:17:45.712Z,0
2017-05-27T11:18:57.631Z,0
2017-05-27T11:20:10.532Z,0
2017-05-27T11:21:23.434Z,0
2017-05-27T11:22:36.330Z,0
2017-05-27T11:23:48.740Z,0
2017-05-27T11:25:00.653Z,0
2017-05-27T11:26:12.578Z,0
2017-05-27T11:27:25.002Z,0
2017-05-27T11:28:37.924Z,0
2017-05-27T11:29:51.023Z,0
2017-05-27T11:31:03.919Z,0
2017-05-27T11:32:16.816Z,0
2017-05-27T11:33:28.736Z,0
2017-05-27T11:34:41.150Z,0
2017-05-27T11:35:53.561Z,5
2017-05-27T11:37:06.463Z,5
2017-05-27T11:38:18.865Z,5
2017-05-27T11:39:31.326Z,5
2017-05-27T11:40:44.225Z,5
2017-05-27T11:41:56.634Z,5
2017-05-27T11:43:09.530Z,5
2017-05-27T11:44:21.936Z,5
2017-05-27T11:45:34.342Z,5
2017-05-27T11:46:47.439Z,5
2017-05-27T11:47:59.847Z,5
2017-05-27T11:49:12.251Z,5
2017-05-27T11:50:24.668Z,5
2017-05-27T11:51:37.767Z,5
2017-05-27T11:52:50.680Z,0
2017-05-27T11:54:02.615Z,0
2017-05-27T11:55:15.534Z,0
2017-05-27T11:56:27.962Z,5
2017-05-27T11:57:40.593Z,5
2017-05-27T11:58:53.592Z,5
2017-05-27T12:00:06.589Z,5
2017-05-27T12:01:18.602Z,5
2017-05-27T12:02:31.109Z,5
2017-05-27T12:03:43.115Z,5
2017-05-27T12:04:55.130Z,5
2017-05-27T12:06:08.127Z,5
2017-05-27T12:07:19.635Z,5
2017-05-27T12:08:32.641Z,5
2017-05-27T12:09:45.637Z,5
2017-05-27T12:10:58.140Z,10
2017-05-27T12:12:10.643Z,5
2017-05-27T12:13:23.844Z,5
2017-05-27T12:14:36.844Z,5
2017-05-27T12:15:49.845Z,5
2017-05-27T12:17:02.346Z,5
2017-05-27T12:18:14.351Z,5
2017-05-27T12:19:26.855Z,5
2017-05-27T12:20:39.859Z,5
2017-05-27T12:21:52.855Z,0
2017-05-27T12:23:05.357Z,0
2017-05-27T12:24:18.122Z,0
2017-05-27T12:25:31.119Z,0
2017-05-27T12:26:43.621Z,0
2017-05-27T12:27:56.124Z,0
2017-05-27T12:29:08.630Z,0
2017-05-27T12:30:21.133Z,0
2017-05-27T12:31:34.135Z,0
2017-05-27T12:32:46.139Z,0
2017-05-27T12:33:58.645Z,0
2017-05-27T12:35:11.652Z,0
2017-05-27T12:36:24.160Z,0
2017-05-27T12:37:37.155Z,0
2017-05-27T12:38:49.167Z,0
2017-05-27T12:40:02.167Z,0
2017-05-27T12:41:15.370Z,0
2017-05-27T12:42:27.871Z,0
2017-05-27T12:43:40.872Z,5
2017-05-27T12:44:53.869Z,5
2017-05-27T12:46:06.892Z,5
2017-05-27T12:47:19.395Z,5
2017-05-27T12:48:32.394Z,5
2017-05-27T12:49:44.897Z,5
2017-05-27T12:50:57.894Z,5
2017-05-27T12:52:09.409Z,5
2017-05-27T12:53:21.415Z,5
2017-05-27T12:54:34.414Z,5
2017-05-27T12:55:47.414Z,5
2017-05-27T12:56:58.426Z,5
2017-05-27T12:58:08.946Z,5
2017-05-27T12:59:19.962Z,5
2017-05-27T13:00:31.478Z,5
2017-05-27T13:01:42.498Z,5
2017-05-27T13:02:55.005Z,5
2017-05-27T13:04:08.002Z,5
2017-05-27T13:05:20.504Z,5
2017-05-27T13:06:33.504Z,10
2017-05-27T13:07:46.504Z,10
2017-05-27T13:08:59.502Z,10
2017-05-27T13:10:12.464Z,10
2017-05-27T13:11:24.404Z,10
2017-05-27T13:12:37.327Z,10
2017-05-27T13:13:50.247Z,10
2017-05-27T13:15:02.874Z,15
2017-05-27T13:16:15.303Z,15
2017-05-27T13:17:27.732Z,15
2017-05-27T13:18:40.652Z,15
2017-05-27T13:19:53.571Z,15
2017-05-27T13:21:06.491Z,15
2017-05-27T13:22:18.938Z,15
2017-05-27T13:23:31.860Z,15
2017-05-27T13:24:44.296Z,15
2017-05-27T13:25:57.216Z,15
2017-05-27T13:27:09.164Z,15
2017-05-27T13:28:21.827Z,15
2017-05-27T13:29:34.361Z,15
2017-05-27T13:30:46.992Z,15
2017-05-27T13:31:59.924Z,15
2017-05-27T13:33:12.976Z,15
2017-05-27T13:34:26.027Z,20
2017-05-27T13:35:38.962Z,20
2017-05-27T13:36:51.880Z,20
2017-05-27T13:38:03.819Z,20
2017-05-27T13:39:16.738Z,20
2017-05-27T13:40:28.677Z,20
2017-05-27T13:41:41.105Z,20
2017-05-27T13:42:53.533Z,20
2017-05-27T13:44:06.451Z,20
2017-05-27T13:45:18.391Z,20
2017-05-27T13:46:30.819Z,25
2017-05-27T13:47:43.249Z,25
2017-05-27T13:48:55.185Z,25
2017-05-27T13:50:07.622Z,25
2017-05-27T13:51:20.540Z,25
2017-05-27T13:52:32.969Z,25
2017-05-27T13:53:45.893Z,25
2017-05-27T13:54:58.819Z,20
2017-05-27T13:56:11.253Z,20
2017-05-27T13:57:23.686Z,20
2017-05-27T13:58:36.166Z,20
2017-05-27T13:59:49.093Z,20
2017-05-27T14:01:01.554Z,20
2017-05-27T14:02:13.991Z,25
2017-05-27T14:03:25.936Z,25
2017-05-27T14:04:38.368Z,30
2017-05-27T14:05:51.291Z,30
2017-05-27T14:07:04.212Z,35
2017-05-27T14:08:16.148Z,30
2017-05-27T14:09:28.562Z,30
2017-05-27T14:10:40.981Z,25
2017-05-27T14:11:53.901Z,20
2017-05-27T14:13:06.325Z,20
2017-05-27T14:14:18.336Z,20
2017-05-27T14:15:30.896Z,20
2017-05-27T14:16:43.542Z,25
2017-05-27T14:17:56.198Z,30
2017-05-27T14:19:09.348Z,35
2017-05-27T14:20:21.565Z,35
2017-05-27T14:21:34.465Z,45
2017-05-27T14:22:47.476Z,40
2017-05-27T14:24:00.463Z,40
2017-05-27T14:25:12.959Z,45
2017-05-27T14:26:25.948Z,35
2017-05-27T14:27:38.934Z,30
2017-05-27T14:28:51.921Z,25
2017-05-27T14:30:04.931Z,25
2017-05-27T14:31:18.228Z,30
2017-05-27T14:32:30.725Z,35
2017-05-27T14:33:43.231Z,40
2017-05-27T14:34:56.223Z,40
2017-05-27T14:36:08.275Z,50
2017-05-27T14:37:21.259Z,40
2017-05-27T14:38:33.758Z,40
2017-05-27T14:39:46.252Z,40
2017-05-27T14:40:59.240Z,40
2017-05-27T14:42:11.728Z,35
2017-05-27T14:43:24.220Z,35
2017-05-27T14:44:36.714Z,35
2017-05-27T14:45:49.206Z,30
2017-05-27T14:47:02.394Z,20
2017-05-27T14:48:13.895Z,20
2017-05-27T14:49:26.884Z,20
2017-05-27T14:50:39.378Z,30
2017-05-27T14:51:51.868Z,30
2017-05-27T14:53:04.743Z,30
2017-05-27T14:54:16.642Z,30
2017-05-27T14:55:29.026Z,40
2017-05-27T14:56:41.891Z,35
2017-05-27T14:57:54.473Z,45
2017-05-27T14:59:06.789Z,35
2017-05-27T15:00:19.581Z,50
2017-05-27T15:01:32.380Z,40
2017-05-27T15:02:45.195Z,40
2017-05-27T15:03:57.502Z,50
2017-05-27T15:05:09.860Z,50
2017-05-27T15:06:22.658Z,50
2017-05-27T15:07:34.973Z,40
2017-05-27T15:08:47.761Z,40
2017-05-27T15:09:59.581Z,40
2017-05-27T15:11:11.887Z,35
2017-05-27T15:12:24.191Z,35
2017-05-27T15:13:36.981Z,50
2017-05-27T15:14:49.966Z,35
2017-05-27T15:16:02.270Z,30
2017-05-27T15:17:14.572Z,25
2017-05-27T15:18:26.877Z,30
2017-05-27T15:19:39.205Z,25
2017-05-27T15:20:52.001Z,30
2017-05-27T15:22:03.830Z,25
2017-05-27T15:23:15.651Z,35
2017-05-27T15:24:28.439Z,25
2017-05-27T15:25:41.220Z,35
2017-05-27T15:26:53.530Z,40
2017-05-27T15:28:06.312Z,30
2017-05-27T15:29:18.617Z,30
2017-05-27T15:31:57.790Z,35
2017-05-27T15:33:10.094Z,25
2017-05-27T15:34:22.400Z,25
2017-05-27T15:35:35.190Z,25
2017-05-27T15:36:47.694Z,25
2017-05-27T15:37:59.997Z,25
2017-05-27T15:39:12.309Z,35
2017-05-27T15:40:24.615Z,35
2017-05-27T15:41:37.399Z,25
2017-05-27T15:42:50.388Z,25
2017-05-27T15:44:03.179Z,25
2017-05-27T15:45:15.006Z,30
2017-05-27T15:46:27.309Z,30
2017-05-27T15:47:39.135Z,30
2017-05-27T15:48:51.921Z,30
2017-05-27T15:50:04.229Z,25
2017-05-27T15:51:17.024Z,25
2017-05-27T15:52:29.409Z,30
2017-05-27T15:53:41.708Z,35
2017-05-27T15:54:54.014Z,30
2017-05-27T15:56:05.838Z,35
2017-05-27T15:57:18.626Z,25
2017-05-27T15:58:31.414Z,25
2017-05-27T15:59:44.205Z,25
2017-05-27T16:00:56.991Z,25
2017-05-27T16:02:08.825Z,25
2017-05-27T16:03:21.611Z,25
2017-05-27T16:04:34.113Z,25
2017-05-27T16:05:45.938Z,25
2017-05-27T16:06:58.239Z,25
2017-05-27T16:08:11.027Z,30
2017-05-27T16:09:22.851Z,30
2017-05-27T16:10:35.837Z,30
2017-05-27T16:11:48.624Z,25
2017-05-27T16:13:01.415Z,25
2017-05-27T16:14:13.722Z,30
2017-05-27T16:15:26.283Z,30
2017-05-27T16:16:39.074Z,30
2017-05-27T16:17:51.863Z,35
2017-05-27T16:19:04.652Z,35
2017-05-27T16:20:16.957Z,35
2017-05-27T16:21:29.259Z,35
2017-05-27T16:22:42.173Z,35
2017-05-27T16:23:55.104Z,30
2017-05-27T16:25:07.537Z,30
2017-05-27T16:26:20.180Z,25
2017-05-27T16:27:32.124Z,30
2017-05-27T16:28:45.065Z,25
2017-05-27T16:29:57.500Z,20
2017-05-27T16:31:09.945Z,20
2017-05-27T16:32:20.917Z,20
2017-05-27T16:33:33.351Z,20
2017-05-27T16:34:45.309Z,20
2017-05-27T16:35:58.239Z,20
2017-05-27T16:37:11.161Z,20
2017-05-27T16:38:24.084Z,20
2017-05-27T16:39:36.515Z,20
2017-05-27T16:40:49.499Z,20
2017-05-27T16:42:02.424Z,25
2017-05-27T16:43:14.862Z,20
2017-05-27T16:44:27.300Z,20
2017-05-27T16:45:40.221Z,25
2017-05-27T16:46:53.147Z,20
2017-05-27T16:48:05.653Z,20
2017-05-27T16:49:18.470Z,20
2017-05-27T16:50:31.032Z,20
2017-05-27T16:51:44.099Z,20
2017-05-27T16:52:57.167Z,20
2017-05-27T16:54:09.732Z,20
2017-05-27T16:55:22.296Z,20
2017-05-27T16:56:35.373Z,25
2017-05-27T16:57:48.448Z,25
2017-05-27T16:59:00.512Z,20
2017-05-27T17:00:13.282Z,20
2017-05-27T17:01:26.346Z,20
2017-05-27T17:02:38.908Z,20
2017-05-27T17:03:51.474Z,20
2017-05-27T17:05:04.537Z,20
2017-05-27T17:06:17.098Z,20
2017-05-27T17:07:30.165Z,20
2017-05-27T17:08:41.731Z,20
2017-05-27T17:09:54.795Z,20
2017-05-27T17:11:07.561Z,20
2017-05-27T17:12:19.126Z,20
2017-05-27T17:13:32.199Z,20
2017-05-27T17:14:44.763Z,20
2017-05-27T17:15:57.339Z,20
2017-05-27T17:17:10.406Z,20
2017-05-27T17:18:22.970Z,20
2017-05-27T17:19:36.039Z,20
2017-05-27T17:20:49.113Z,20
2017-05-27T17:22:02.178Z,20
2017-05-27T17:23:14.751Z,20
2017-05-27T17:24:27.219Z,20
2017-05-27T17:25:40.148Z,20
2017-05-27T17:26:52.582Z,20
2017-05-27T17:28:05.505Z,20
2017-05-27T17:29:17.937Z,20
2017-05-27T17:30:30.368Z,20
2017-05-27T17:31:43.293Z,20
2017-05-27T17:32:55.731Z,20
2017-05-27T17:34:08.175Z,20
2017-05-27T17:35:21.098Z,25
2017-05-27T17:36:33.531Z,25
2017-05-27T17:37:46.457Z,25
2017-05-27T17:38:59.381Z,25
2017-05-27T17:40:11.322Z,25
2017-05-27T17:41:23.835Z,25
2017-05-27T17:42:35.774Z,25
2017-05-27T17:43:48.692Z,25